Terminal Aerodrome Forecast
Issued by NWS Columbia, SC

Home | Current Version | Previous Version | Text Only | Print | Product List | Glossary On
Versions: 1 2 3 4 5 6 7 8 9 10 11 12 13 14 15 16 17 18 19 20 21 22 23 24 25 26 27 28 29 30 31 32 33 34 35 36 37 38 39 40
000
FTUS42 KCAE 301700
TAFAGS
TAF
KAGS 301731Z 3018/3118 VRB06KT P6SM BKN060
      TEMPO 3018/3020 5SM -SHRA BKN035 OVC060
     FM310900 00000KT 5SM BR SCT020 BKN060
     FM311300 08006KT P6SM OVC050=

USA.gov is the U.S. government's official web portal to all federal, state and local government web resources and services.